Ana Sayfa
METAR-TAF:

METAR-TAF

Havaalanları :

Newark-Heath Airport

Newark, Ohio, Amerika Birleşik Devletleri

Enlem: 40-01-22N, Boylam: 082-27-45W, yükseklik: 269 m

Güncel hava durumu gözlemi

Rapor saat 05:54 UTC de 25 dakika önce yapıldı.
Sakin rüzgar
Sıcaklık -9°C
Nem 73%
Basınç 1031 hPa
Görüş mesafesi: 6.4 km
Açık gökyüzü
Toz Pusu

METAR: KVTA 220554Z AUTO 00000KT 4SM HZ CLR M09/M13 A3045 RMK AO2 SLP325 I1000 I6000 T10941128 11044 21100 58019

Saat: 01:19 (06:19 UTC)


TAF: eksik

4.000'den fazla havaalanı için hava durumu gözlemleri ve tahminleri (METAR ve TAF raporları).

Kullanılabilir istasyonlar harita üzerinde sarı ve kırmızı noktalarla gösterilir.

İstasyonun adını görmek için fareyi noktanın üzerinde gezdirin.

Sonrasında hava gözlem ve tahminlerini görmek için tıklayın.

Haritayı değiştirmek için: yaklaştırmak için siyah artı işaretli yeşil düğmeye ve uzaklaştırmak için de eksi işaretli düğmeye hızla tıklayın; bitişik haritalar için yeşil okları kullanın.


METAR-TAF: